Time;durP1;ratioP1;P1;durP2;ratioP2;P2;SDS_P1;SDS_P2;PMS_P1;PMS_P2;Temp;Humidity;BMP_temperature;BMP_pressure;BME280_temperature;BME280_humidity;BME280_pressure;Samples;Min_cycle;Max_cycle;Signal;HPM_P1;HPM_P2
2023/05/30 00:00:58;;;;;;;4.50;2.33;;;14.40;99.90;;;;;;5031685;28;20431;-89
2023/05/30 00:03:24;;;;;;;4.87;2.93;;;;;;;;;;5051840;28;20437;-89
2023/05/30 00:05:50;;;;;;;4.20;3.27;;;14.40;99.90;;;;;;5045741;28;20205;-88
2023/05/30 00:08:16;;;;;;;5.20;3.03;;;14.40;99.90;;;;;;5046744;28;20498;-89
2023/05/30 00:10:42;;;;;;;6.77;3.50;;;;;;;;;;5028474;28;20181;-89
2023/05/30 00:13:07;;;;;;;8.67;3.53;;;14.40;99.90;;;;;;5046084;28;20506;-89
2023/05/30 00:15:33;;;;;;;4.00;2.50;;;;;;;;;;5039859;28;20518;-89
2023/05/30 00:18:00;;;;;;;6.03;3.00;;;14.30;99.90;;;;;;5031710;28;20604;-89
2023/05/30 00:20:29;;;;;;;5.27;2.67;;;14.30;99.90;;;;;;5044838;28;20443;-88
2023/05/30 00:23:00;;;;;;;4.13;2.60;;;14.30;99.90;;;;;;5037960;28;20431;-89
2023/05/30 00:25:26;;;;;;;4.30;2.77;;;14.30;99.90;;;;;;5048511;28;20423;-88
2023/05/30 00:27:52;;;;;;;4.10;2.90;;;;;;;;;;5045364;28;21515;-88
2023/05/30 00:30:17;;;;;;;4.73;3.27;;;14.20;99.90;;;;;;5047777;28;20213;-89
2023/05/30 00:32:43;;;;;;;4.37;3.13;;;14.20;99.90;;;;;;5031070;28;20496;-88
2023/05/30 00:35:09;;;;;;;4.97;3.13;;;14.20;99.90;;;;;;5030458;28;20490;-89
2023/05/30 00:37:35;;;;;;;7.90;3.38;;;14.10;99.90;;;;;;5049096;28;20277;-89
2023/05/30 00:40:00;;;;;;;6.13;2.80;;;14.10;99.90;;;;;;5049241;28;20217;-88
2023/05/30 00:42:27;;;;;;;4.77;2.80;;;14.20;99.90;;;;;;5024540;28;20180;-88
2023/05/30 00:44:53;;;;;;;3.07;2.40;;;14.20;99.90;;;;;;5047747;28;20192;-88
2023/05/30 00:47:18;;;;;;;5.13;2.67;;;14.30;99.90;;;;;;5044600;28;20846;-89
2023/05/30 00:49:44;;;;;;;8.30;3.53;;;14.40;99.90;;;;;;5039384;28;20204;-89
2023/05/30 00:52:12;;;;;;;5.00;3.50;;;14.50;99.90;;;;;;5050414;28;20184;-88
2023/05/30 00:54:40;;;;;;;5.03;2.53;;;14.50;99.90;;;;;;5029855;28;20514;-88
2023/05/30 00:57:07;;;;;;;4.83;2.67;;;14.50;99.90;;;;;;5049849;28;20423;-89
2023/05/30 00:59:33;;;;;;;8.82;3.00;;;14.50;99.90;;;;;;5047715;28;20451;-88
2023/05/30 01:01:58;;;;;;;5.72;3.22;;;14.50;99.90;;;;;;5030411;28;20185;-88
2023/05/30 01:04:24;;;;;;;5.50;2.70;;;14.50;99.90;;;;;;5028653;28;20295;-88
2023/05/30 01:06:50;;;;;;;4.03;2.70;;;14.60;99.90;;;;;;5049062;28;20185;-89
2023/05/30 01:09:16;;;;;;;5.50;3.50;;;14.50;99.90;;;;;;5036821;28;20220;-89
2023/05/30 01:12:14;;;;;;;5.53;2.90;;;14.50;99.90;;;;;;5044622;28;20431;-88
2023/05/30 01:15:06;;;;;;;6.07;3.40;;;14.60;99.90;;;;;;5021205;28;20196;-89
2023/05/30 01:18:00;;;;;;;4.97;2.80;;;14.60;99.90;;;;;;5030401;28;20858;-88
2023/05/30 01:20:26;;;;;;;5.20;3.10;;;14.50;99.90;;;;;;5044197;28;20451;-88
2023/05/30 01:23:36;;;;;;;3.93;2.90;;;14.40;99.90;;;;;;5049298;28;20501;-88
2023/05/30 01:26:21;;;;;;;4.90;3.17;;;14.40;99.90;;;;;;5044190;28;20445;-89
2023/05/30 01:28:49;;;;;;;5.93;2.80;;;14.30;99.90;;;;;;5026636;28;20485;-88
2023/05/30 01:31:16;;;;;;;6.37;3.07;;;14.30;99.90;;;;;;5026352;28;20431;-89
2023/05/30 01:33:43;;;;;;;6.35;2.75;;;14.30;99.90;;;;;;5047070;28;20517;-88
2023/05/30 01:36:10;;;;;;;5.00;3.50;;;14.30;99.90;;;;;;5044824;28;20280;-89
2023/05/30 01:38:37;;;;;;;6.90;2.90;;;;;;;;;;5030578;28;20216;-88
2023/05/30 01:41:07;;;;;;;7.23;3.80;;;14.40;99.90;;;;;;5047696;28;20431;-88
2023/05/30 01:44:05;;;;;;;4.30;2.80;;;14.30;99.90;;;;;;5029957;28;20439;-88
2023/05/30 01:46:33;;;;;;;4.68;2.58;;;14.50;99.90;;;;;;5029691;28;20434;-88
2023/05/30 01:49:21;;;;;;;8.10;3.50;;;14.40;99.90;;;;;;5031984;28;20212;-88
2023/05/30 01:51:57;;;;;;;7.22;3.60;;;14.30;99.90;;;;;;5047714;28;20174;-88
2023/05/30 01:54:24;;;;;;;7.18;3.05;;;14.20;99.90;;;;;;5049949;28;20199;-88
2023/05/30 01:56:58;;;;;;;6.28;3.13;;;14.10;99.90;;;;;;5027601;28;20177;-88
2023/05/30 01:59:25;;;;;;;8.67;3.40;;;14.00;99.90;;;;;;5052243;28;20862;-89
2023/05/30 02:01:53;;;;;;;6.93;3.43;;;13.90;99.90;;;;;;5052364;28;20449;-88
2023/05/30 02:04:19;;;;;;;9.27;3.55;;;13.80;99.90;;;;;;5041188;28;20434;-88
2023/05/30 02:06:45;;;;;;;4.93;3.10;;;13.60;99.90;;;;;;5030839;28;20189;-88
2023/05/30 02:09:11;;;;;;;3.60;3.03;;;;;;;;;;5050227;28;20288;-88
2023/05/30 02:11:37;;;;;;;5.30;2.60;;;13.50;99.90;;;;;;5037516;28;20533;-88
2023/05/30 02:14:03;;;;;;;4.95;2.60;;;;;;;;;;5032468;28;20866;-88
2023/05/30 02:16:29;;;;;;;5.18;3.00;;;13.30;99.90;;;;;;5050976;28;20624;-88
2023/05/30 02:18:54;;;;;;;4.38;3.03;;;13.20;99.90;;;;;;5052675;28;20205;-88
2023/05/30 02:21:20;;;;;;;5.23;2.83;;;13.20;99.90;;;;;;5035405;28;20645;-88
2023/05/30 02:23:46;;;;;;;3.77;2.73;;;13.20;99.90;;;;;;5052255;28;20161;-88
2023/05/30 02:26:11;;;;;;;4.00;2.80;;;13.20;99.90;;;;;;5051635;28;20189;-88
2023/05/30 02:28:37;;;;;;;7.40;4.00;;;13.30;99.90;;;;;;5033670;28;20252;-88
2023/05/30 02:31:03;;;;;;;4.97;2.80;;;;;;;;;;5052748;28;20541;-88
2023/05/30 02:33:29;;;;;;;6.70;2.77;;;;;;;;;;5043452;28;20208;-88
2023/05/30 02:35:55;;;;;;;4.60;3.17;;;13.50;99.90;;;;;;5048144;28;20457;-88
2023/05/30 02:38:20;;;;;;;4.27;2.43;;;13.30;99.90;;;;;;5039944;28;20742;-89
2023/05/30 02:40:46;;;;;;;8.00;3.73;;;13.30;99.90;;;;;;5033521;28;20181;-89
2023/05/30 02:43:12;;;;;;;4.40;2.70;;;13.10;99.90;;;;;;5029951;28;20173;-90
2023/05/30 02:45:38;;;;;;;10.82;3.70;;;13.00;99.90;;;;;;5045913;28;20664;-89
2023/05/30 02:48:03;;;;;;;6.30;3.53;;;13.00;99.90;;;;;;5038035;28;20193;-87
2023/05/30 02:50:30;;;;;;;6.53;3.23;;;;;;;;;;5048801;28;20901;-88
2023/05/30 02:52:55;;;;;;;6.95;2.83;;;12.90;99.90;;;;;;5043185;28;20209;-88
2023/05/30 02:55:21;;;;;;;5.20;2.70;;;12.90;99.90;;;;;;5032827;28;20205;-89
2023/05/30 02:57:47;;;;;;;5.65;2.50;;;12.90;99.90;;;;;;5050352;28;20185;-87
2023/05/30 03:00:13;;;;;;;9.00;4.23;;;12.90;99.90;;;;;;5031237;28;20197;-88
2023/05/30 03:02:39;;;;;;;7.18;3.17;;;13.00;99.90;;;;;;5048354;28;20221;-88
2023/05/30 03:05:06;;;;;;;5.87;2.87;;;13.00;99.90;;;;;;5046723;28;20224;-88
2023/05/30 03:07:32;;;;;;;4.70;2.90;;;13.10;99.90;;;;;;5037522;28;20185;-89
2023/05/30 03:09:58;;;;;;;6.55;3.00;;;13.00;99.90;;;;;;5042494;28;20196;-88
2023/05/30 03:12:23;;;;;;;7.00;3.33;;;12.90;99.90;;;;;;5047779;28;20557;-89
2023/05/30 03:14:49;;;;;;;4.33;2.73;;;12.80;99.90;;;;;;5047044;28;20582;-89
2023/05/30 03:17:15;;;;;;;6.10;3.13;;;12.70;99.90;;;;;;5042510;28;20180;-87
2023/05/30 03:19:44;;;;;;;4.83;2.57;;;;;;;;;;5047695;28;20261;-88
2023/05/30 03:22:10;;;;;;;5.13;3.22;;;12.60;99.90;;;;;;5052141;28;20173;-90
2023/05/30 03:24:35;;;;;;;5.80;3.55;;;12.50;99.90;;;;;;5035563;28;20487;-88
2023/05/30 03:27:02;;;;;;;4.93;2.57;;;12.40;99.90;;;;;;5046593;28;20650;-87
2023/05/30 03:29:27;;;;;;;6.00;2.88;;;12.40;99.90;;;;;;5047795;28;20217;-88
2023/05/30 03:31:53;;;;;;;8.17;3.77;;;12.30;99.90;;;;;;5049188;28;20188;-89
2023/05/30 03:34:19;;;;;;;5.87;3.43;;;12.20;99.90;;;;;;5029611;28;20188;-88
2023/05/30 03:36:45;;;;;;;7.60;3.13;;;12.20;99.90;;;;;;5048309;28;20193;-87
2023/05/30 03:39:11;;;;;;;5.03;3.13;;;12.10;99.90;;;;;;5047681;28;20220;-88
2023/05/30 03:41:37;;;;;;;3.72;2.65;;;12.10;99.90;;;;;;5031562;28;20740;-88
2023/05/30 03:44:02;;;;;;;4.13;2.53;;;12.00;99.90;;;;;;5048974;28;20284;-88
2023/05/30 03:46:28;;;;;;;7.10;3.17;;;12.10;99.90;;;;;;5049075;28;20197;-87
2023/05/30 03:48:53;;;;;;;6.13;2.60;;;12.10;99.90;;;;;;5030895;28;20235;-88
2023/05/30 03:51:19;;;;;;;5.73;3.23;;;12.20;99.90;;;;;;5046156;28;20235;-88
2023/05/30 03:53:45;;;;;;;4.60;2.87;;;;;;;;;;5026988;28;20185;-87
2023/05/30 03:56:11;;;;;;;9.10;3.47;;;12.40;99.90;;;;;;5046685;28;20228;-88
2023/05/30 03:58:36;;;;;;;4.73;3.00;;;12.50;99.90;;;;;;5031834;28;20935;-88
2023/05/30 04:01:02;;;;;;;4.23;3.03;;;12.60;99.90;;;;;;5047586;28;20427;-89
2023/05/30 04:03:28;;;;;;;5.17;3.60;;;12.60;99.90;;;;;;5044827;28;20173;-88
2023/05/30 04:05:58;;;;;;;5.13;4.05;;;12.80;99.90;;;;;;5036244;28;20181;-87
2023/05/30 04:08:24;;;;;;;9.57;3.17;;;13.10;99.90;;;;;;5049538;28;20299;-88
2023/05/30 04:10:50;;;;;;;3.63;2.03;;;13.10;99.90;;;;;;5046420;28;20221;-88
2023/05/30 04:13:16;;;;;;;5.80;3.40;;;;;;;;;;5050468;28;20411;-88
2023/05/30 04:15:44;;;;;;;3.83;2.60;;;13.60;99.90;;;;;;5037155;28;20207;-88
2023/05/30 04:18:10;;;;;;;4.05;2.90;;;13.80;99.90;;;;;;5050428;28;20443;-87
2023/05/30 04:20:35;;;;;;;5.00;3.00;;;13.80;99.90;;;;;;5049160;28;20188;-89
2023/05/30 04:23:01;;;;;;;8.23;3.60;;;14.10;99.90;;;;;;5050989;28;20445;-88
2023/05/30 04:25:27;;;;;;;8.03;4.20;;;14.30;99.90;;;;;;5049421;28;21122;-89
2023/05/30 04:27:54;;;;;;;4.57;3.20;;;14.50;99.90;;;;;;5049105;28;20200;-89
2023/05/30 04:30:20;;;;;;;4.35;3.08;;;14.70;99.90;;;;;;5038291;28;20212;-88
2023/05/30 04:32:45;;;;;;;5.90;3.47;;;15.00;99.90;;;;;;5048773;28;20208;-88
2023/05/30 04:35:13;;;;;;;3.27;2.43;;;15.10;99.90;;;;;;5036698;28;20244;-88
2023/05/30 04:37:43;;;;;;;9.07;3.70;;;15.10;99.90;;;;;;5049142;28;20165;-87
2023/05/30 04:40:12;;;;;;;4.80;2.73;;;15.20;99.90;;;;;;5041051;28;20205;-89
2023/05/30 04:42:38;;;;;;;6.30;3.33;;;15.60;99.90;;;;;;5028059;28;21571;-88
2023/05/30 04:45:05;;;;;;;6.73;3.87;;;15.90;99.90;;;;;;5028117;28;20439;-87
2023/05/30 04:47:30;;;;;;;4.90;2.77;;;16.30;99.90;;;;;;5029075;28;20443;-88
2023/05/30 04:50:00;;;;;;;4.83;2.77;;;16.80;99.90;;;;;;5030763;28;20463;-88
2023/05/30 04:52:26;;;;;;;2.40;1.90;;;16.80;99.90;;;;;;5048256;28;20181;-88
2023/05/30 04:54:52;;;;;;;5.27;3.27;;;17.10;99.90;;;;;;5046833;28;20498;-89
2023/05/30 04:57:18;;;;;;;5.87;2.70;;;17.50;99.90;;;;;;5048052;28;20778;-88
2023/05/30 04:59:44;;;;;;;8.50;3.07;;;;;;;;;;5046759;28;21066;-88
2023/05/30 05:02:10;;;;;;;5.40;2.87;;;;;;;;;;5049238;28;20510;-88
2023/05/30 05:04:37;;;;;;;4.07;3.13;;;;;;;;;;5045562;28;20477;-89
2023/05/30 05:07:02;;;;;;;9.00;3.00;;;18.50;99.90;;;;;;5051216;28;20415;-88
2023/05/30 05:09:28;;;;;;;5.40;3.20;;;;;;;;;;5055540;28;20798;-87
2023/05/30 05:11:55;;;;;;;7.70;3.17;;;;;;;;;;5053980;28;20211;-89
2023/05/30 05:14:21;;;;;;;6.33;3.03;;;;;;;;;;5049914;28;20439;-88
2023/05/30 05:16:47;;;;;;;6.07;2.63;;;;;;;;;;5048610;28;20816;-88
2023/05/30 05:19:13;;;;;;;14.20;3.60;;;;;;;;;;5031572;28;20934;-88
2023/05/30 05:21:39;;;;;;;4.93;3.30;;;19.30;99.90;;;;;;5029735;28;21158;-88
2023/05/30 05:24:04;;;;;;;4.97;3.07;;;19.70;99.90;;;;;;5048143;28;20427;-86
2023/05/30 05:26:31;;;;;;;4.67;2.80;;;;;;;;;;5038048;28;20207;-89
2023/05/30 05:28:56;;;;;;;8.10;2.80;;;19.70;99.90;;;;;;5053894;28;21064;-88
2023/05/30 05:31:22;;;;;;;4.40;2.70;;;;;;;;;;5053565;28;20427;-89
2023/05/30 05:33:48;;;;;;;4.17;2.50;;;19.50;99.90;;;;;;5051859;28;20177;-88
2023/05/30 05:36:14;;;;;;;3.30;2.53;;;;;;;;;;5050417;28;20556;-89
2023/05/30 05:38:40;;;;;;;4.37;2.73;;;;;;;;;;5052290;28;20228;-86
2023/05/30 05:41:06;;;;;;;4.33;3.00;;;;;;;;;;5050288;28;20811;-88
2023/05/30 05:43:32;;;;;;;3.60;2.37;;;;;;;;;;5035663;28;20420;-84
2023/05/30 05:45:58;;;;;;;3.73;2.33;;;;;;;;;;5036822;28;20495;-87
2023/05/30 05:48:24;;;;;;;5.53;2.40;;;;;;;;;;5049931;28;20477;-86
2023/05/30 05:50:49;;;;;;;7.57;2.73;;;21.30;98.70;;;;;;5041859;28;20510;-86
2023/05/30 05:53:15;;;;;;;3.90;2.37;;;;;;;;;;5034065;28;20522;-87
2023/05/30 05:55:41;;;;;;;5.83;3.00;;;;;;;;;;5050078;28;20285;-86
2023/05/30 05:58:07;;;;;;;4.97;3.47;;;;;;;;;;5052954;28;20415;-87
2023/05/30 06:00:34;;;;;;;5.10;3.30;;;23.40;96.20;;;;;;5031730;28;20470;-87
2023/05/30 06:03:00;;;;;;;3.37;2.53;;;23.40;92.00;;;;;;5050417;28;20943;-87
2023/05/30 06:05:26;;;;;;;4.53;2.33;;;;;;;;;;5049621;28;20442;-89
2023/05/30 06:07:52;;;;;;;4.40;3.00;;;;;;;;;;5052997;28;20188;-89
2023/05/30 06:10:18;;;;;;;5.30;2.40;;;;;;;;;;5035527;28;20463;-86
2023/05/30 06:12:45;;;;;;;6.93;3.10;;;24.30;84.40;;;;;;5041030;28;20428;-86
2023/05/30 06:15:12;;;;;;;3.03;2.17;;;;;;;;;;5052484;28;21170;-86
2023/05/30 06:17:38;;;;;;;8.03;2.90;;;23.60;80.50;;;;;;5038995;28;20469;-87
2023/05/30 06:20:04;;;;;;;6.43;3.30;;;23.10;84.20;;;;;;5032704;28;20521;-87
2023/05/30 06:22:30;;;;;;;4.03;3.00;;;;;;;;;;5051778;28;20851;-85
2023/05/30 06:24:56;;;;;;;5.37;3.10;;;;;;;;;;5046199;28;20423;-88
2023/05/30 06:27:22;;;;;;;5.67;2.50;;;;;;;;;;5054002;28;20478;-88
2023/05/30 06:29:48;;;;;;;4.17;2.17;;;;;;;;;;5055914;28;20467;-88
2023/05/30 06:32:14;;;;;;;3.40;2.33;;;;;;;;;;5054748;28;20485;-88
2023/05/30 06:34:40;;;;;;;5.00;2.73;;;;;;;;;;5050209;28;20427;-86
2023/05/30 06:37:06;;;;;;;3.93;2.70;;;;;;;;;;5053872;28;20436;-88
2023/05/30 06:39:32;;;;;;;4.03;2.37;;;;;;;;;;5052230;28;20451;-88
2023/05/30 06:41:57;;;;;;;4.97;2.70;;;;;;;;;;5036030;28;20427;-88
2023/05/30 06:44:23;;;;;;;5.13;2.50;;;;;;;;;;5039992;28;20469;-88
2023/05/30 06:46:50;;;;;;;6.10;2.73;;;;;;;;;;5048338;28;20512;-87
2023/05/30 06:49:16;;;;;;;3.23;2.43;;;;;;;;;;5041546;28;20475;-88
2023/05/30 06:51:41;;;;;;;4.07;2.13;;;;;;;;;;5041250;28;20489;-89
2023/05/30 06:54:07;;;;;;;4.17;2.60;;;;;;;;;;5054069;28;20434;-88
2023/05/30 06:56:33;;;;;;;10.27;2.70;;;;;;;;;;5043921;28;20416;-87
2023/05/30 06:58:59;;;;;;;6.13;2.37;;;;;;;;;;5052440;28;20459;-87
2023/05/30 07:01:25;;;;;;;4.30;2.83;;;;;;;;;;5049916;28;20459;-88
2023/05/30 07:03:51;;;;;;;3.60;2.80;;;;;;;;;;5049601;28;20530;-87
2023/05/30 07:06:17;;;;;;;5.17;2.20;;;;;;;;;;5046619;28;20466;-87
2023/05/30 07:08:43;;;;;;;4.20;2.47;;;;;;;;;;5048458;28;20530;-87
2023/05/30 07:11:09;;;;;;;5.33;2.50;;;;;;;;;;5045605;28;21098;-87
2023/05/30 07:13:35;;;;;;;4.80;2.50;;;;;;;;;;5049632;28;20420;-88
2023/05/30 07:16:01;;;;;;;3.00;2.37;;;;;;;;;;5040337;28;20505;-88
2023/05/30 07:18:27;;;;;;;3.53;2.10;;;;;;;;;;5046311;28;20514;-86
2023/05/30 07:20:52;;;;;;;3.30;2.20;;;;;;;;;;5045303;28;20975;-88
2023/05/30 07:23:19;;;;;;;5.73;2.57;;;;;;;;;;5037666;28;20427;-89
2023/05/30 07:25:44;;;;;;;7.30;2.40;;;26.40;58.60;;;;;;5047434;28;20408;-88
2023/05/30 07:28:11;;;;;;;4.43;2.33;;;27.80;57.20;;;;;;5032071;28;20444;-88
2023/05/30 07:30:37;;;;;;;9.70;2.60;;;;;;;;;;5050187;28;20572;-87
2023/05/30 07:33:03;;;;;;;5.50;2.37;;;;;;;;;;5046342;28;20434;-89
2023/05/30 07:35:29;;;;;;;4.10;2.50;;;;;;;;;;5047673;28;20440;-88
2023/05/30 07:37:55;;;;;;;6.17;2.70;;;;;;;;;;5049868;28;20410;-88
2023/05/30 07:40:21;;;;;;;5.43;2.80;;;;;;;;;;5049540;28;20437;-87
2023/05/30 07:42:47;;;;;;;3.77;2.27;;;;;;;;;;5049459;28;20435;-89
2023/05/30 07:45:17;;;;;;;6.07;2.90;;;29.30;49.10;;;;;;5062040;28;20420;-86
2023/05/30 07:47:43;;;;;;;2.97;2.67;;;;;;;;;;5072062;28;20456;-88
2023/05/30 07:50:10;;;;;;;6.43;2.60;;;;;;;;;;5056895;28;20934;-88
2023/05/30 07:52:36;;;;;;;2.63;2.43;;;;;;;;;;5048899;28;20415;-88
2023/05/30 07:55:02;;;;;;;3.50;3.00;;;;;;;;;;5049304;28;20482;-87
2023/05/30 07:57:28;;;;;;;5.43;3.47;;;32.00;43.70;;;;;;5037661;28;20440;-88
2023/05/30 07:59:54;;;;;;;7.80;3.10;;;;;;;;;;5045043;28;20492;-88
2023/05/30 08:02:24;;;;;;;5.80;3.30;;;;;;;;;;5047054;28;20429;-88
2023/05/30 08:04:50;;;;;;;3.93;2.90;;;;;;;;;;5032000;28;20432;-88
2023/05/30 08:07:16;;;;;;;5.00;4.13;;;;;;;;;;5048336;28;20490;-88
2023/05/30 08:09:42;;;;;;;3.90;3.53;;;;;;;;;;5046948;28;20564;-88
2023/05/30 08:12:15;;;;;;;4.27;3.87;;;31.70;43.50;;;;;;5037863;28;20496;-87
2023/05/30 08:14:41;;;;;;;4.80;3.40;;;;;;;;;;5030868;28;20563;-88
2023/05/30 08:17:07;;;;;;;5.83;3.80;;;;;;;;;;5050611;28;20433;-89
2023/05/30 08:19:33;;;;;;;4.60;3.33;;;;;;;;;;5048698;28;20456;-87
2023/05/30 08:21:58;;;;;;;9.23;3.60;;;;;;;;;;5045315;28;20787;-88
2023/05/30 08:24:28;;;;;;;6.50;3.30;;;;;;;;;;5038738;28;20819;-88
2023/05/30 08:26:54;;;;;;;4.00;2.73;;;;;;;;;;5045160;28;20458;-88
2023/05/30 08:29:20;;;;;;;4.67;3.07;;;;;;;;;;5047981;28;20513;-87
2023/05/30 08:31:45;;;;;;;6.57;3.27;;;;;;;;;;5048032;28;20505;-88
2023/05/30 08:34:11;;;;;;;5.50;3.33;;;;;;;;;;5047063;28;20428;-88
2023/05/30 08:36:37;;;;;;;5.37;2.70;;;;;;;;;;5037035;28;20427;-88
2023/05/30 08:39:03;;;;;;;3.77;3.17;;;;;;;;;;5042982;28;21272;-87
2023/05/30 08:41:30;;;;;;;5.00;3.30;;;30.10;45.70;;;;;;5028288;28;20444;-89
2023/05/30 08:43:56;;;;;;;4.17;2.90;;;;;;;;;;5052375;28;20406;-86
2023/05/30 08:46:22;;;;;;;4.57;2.80;;;;;;;;;;5057386;28;20451;-88
2023/05/30 08:48:48;;;;;;;6.27;3.40;;;29.30;44.10;;;;;;5045295;28;20450;-88
2023/05/30 08:51:17;;;;;;;4.23;2.97;;;;;;;;;;5043058;28;20443;-87
2023/05/30 08:53:49;;;;;;;4.57;3.27;;;28.70;45.40;;;;;;5041822;28;20435;-88
2023/05/30 08:56:32;;;;;;;4.70;3.00;;;30.20;45.70;;;;;;5032383;28;20494;-88
2023/05/30 08:59:00;;;;;;;6.70;3.17;;;30.30;43.60;;;;;;5046614;28;20445;-87
2023/05/30 09:01:27;;;;;;;5.50;3.57;;;30.30;44.10;;;;;;5040857;28;20464;-88
2023/05/30 09:03:54;;;;;;;4.60;2.70;;;29.60;44.20;;;;;;5032292;28;20428;-88
2023/05/30 09:06:21;;;;;;;4.50;3.67;;;30.90;45.80;;;;;;5052856;28;20512;-88
2023/05/30 09:08:51;;;;;;;4.50;3.70;;;32.10;42.20;;;;;;5035495;28;20443;-86
2023/05/30 09:11:18;;;;;;;8.10;3.57;;;;;;;;;;5046873;28;20431;-88
2023/05/30 09:13:44;;;;;;;5.20;4.33;;;;;;;;;;5052461;28;20483;-88
2023/05/30 09:16:10;;;;;;;5.50;4.47;;;;;;;;;;5050189;28;20512;-86
2023/05/30 09:18:36;;;;;;;7.03;4.43;;;;;;;;;;5050102;28;20558;-88
2023/05/30 09:21:02;;;;;;;5.07;3.90;;;;;;;;;;5050084;28;20454;-87
2023/05/30 09:23:29;;;;;;;5.13;3.60;;;;;;;;;;5042857;28;20463;-87
2023/05/30 09:25:59;;;;;;;7.30;4.63;;;30.70;41.20;;;;;;5050142;28;20415;-88
2023/05/30 09:28:26;;;;;;;5.87;4.60;;;30.80;41.40;;;;;;5050362;28;20441;-88
2023/05/30 09:31:00;;;;;;;5.17;4.10;;;31.30;42.60;;;;;;5024958;28;20533;-87
2023/05/30 09:33:47;;;;;;;5.13;4.07;;;30.10;42.10;;;;;;5033214;28;20454;-87
2023/05/30 09:36:18;;;;;;;4.93;3.80;;;30.40;42.40;;;;;;5047589;28;20476;-87
2023/05/30 09:38:54;;;;;;;4.53;3.57;;;30.70;41.60;;;;;;5034535;28;20474;-87
2023/05/30 09:41:21;;;;;;;4.83;3.60;;;;;;;;;;5050671;28;20427;-86
2023/05/30 09:43:52;;;;;;;5.43;3.83;;;;;;;;;;5052768;28;20469;-88
2023/05/30 09:46:21;;;;;;;4.33;3.93;;;;;;;;;;5037464;28;20434;-88
2023/05/30 09:48:47;;;;;;;4.53;4.13;;;;;;;;;;5055316;28;20449;-87
2023/05/30 09:51:15;;;;;;;4.93;3.63;;;29.80;42.60;;;;;;5054498;28;21150;-89
2023/05/30 09:54:00;;;;;;;5.20;3.90;;;28.50;43.60;;;;;;5051450;28;20423;-88
2023/05/30 09:56:36;;;;;;;3.40;3.00;;;28.50;44.60;;;;;;5052963;28;20455;-87
2023/05/30 09:59:13;;;;;;;4.40;3.60;;;28.10;45.30;;;;;;5046301;28;20463;-86
2023/05/30 10:01:48;;;;;;;3.57;3.23;;;28.40;45.90;;;;;;5050210;28;20424;-88
2023/05/30 10:04:16;;;;;;;5.13;3.13;;;28.10;44.60;;;;;;5049056;28;20509;-88
2023/05/30 10:06:45;;;;;;;10.33;3.70;;;28.10;45.30;;;;;;5050514;28;20464;-88
2023/05/30 10:09:11;;;;;;;6.00;3.10;;;27.70;47.10;;;;;;5051257;28;20502;-87
2023/05/30 10:11:38;;;;;;;6.27;3.00;;;;;;;;;;5047215;28;20431;-88
2023/05/30 10:14:04;;;;;;;4.73;3.57;;;;;;;;;;5051079;28;20927;-88
2023/05/30 10:16:33;;;;;;;4.43;3.40;;;27.20;48.40;;;;;;5050603;28;20431;-87
2023/05/30 10:19:01;;;;;;;10.43;3.90;;;27.50;46.90;;;;;;5049752;28;20492;-88
2023/05/30 10:21:30;;;;;;;15.00;4.07;;;28.20;47.20;;;;;;5049721;28;20495;-87
2023/05/30 10:23:58;;;;;;;4.80;3.47;;;28.70;46.20;;;;;;5066629;28;20424;-86
2023/05/30 10:26:31;;;;;;;3.90;3.00;;;28.30;46.00;;;;;;5074060;28;20416;-86
2023/05/30 10:28:57;;;;;;;4.50;3.03;;;28.20;46.50;;;;;;5040581;28;20483;-87
2023/05/30 10:31:25;;;;;;;4.13;3.70;;;28.00;47.80;;;;;;5037603;28;20435;-88
2023/05/30 10:33:52;;;;;;;10.70;3.20;;;26.00;48.80;;;;;;5032028;28;20184;-88
2023/05/30 10:36:18;;;;;;;4.00;3.07;;;;;;;;;;5056688;28;20433;-88
2023/05/30 10:39:03;;;;;;;5.90;2.83;;;24.90;51.30;;;;;;5045342;28;20448;-86
2023/05/30 10:41:41;;;;;;;5.03;3.10;;;24.50;52.00;;;;;;5052967;28;20400;-87
2023/05/30 10:44:42;;;;;;;5.33;2.60;;;26.70;54.00;;;;;;5055448;28;20475;-86
2023/05/30 10:47:38;;;;;;;5.00;2.87;;;24.10;52.50;;;;;;5056620;28;20462;-88
2023/05/30 10:50:10;;;;;;;5.50;2.93;;;23.60;55.60;;;;;;5050554;28;20467;-88
2023/05/30 10:52:35;;;;;;;4.87;3.07;;;23.30;54.40;;;;;;5036768;28;20427;-87
2023/05/30 10:55:08;;;;;;;5.20;3.10;;;23.30;54.10;;;;;;5052859;28;20411;-87
2023/05/30 10:57:34;;;;;;;6.77;2.80;;;23.30;55.10;;;;;;5028846;28;20767;-87
2023/05/30 11:00:08;;;;;;;6.20;2.73;;;23.50;54.50;;;;;;5034964;28;20455;-87
2023/05/30 11:02:35;;;;;;;5.03;2.70;;;23.70;54.50;;;;;;5050755;28;20427;-87
2023/05/30 11:05:09;;;;;;;6.10;2.93;;;24.60;55.70;;;;;;5041440;28;20442;-88
2023/05/30 11:07:40;;;;;;;5.30;3.23;;;23.80;54.00;;;;;;5036207;28;20444;-88
2023/05/30 11:10:10;;;;;;;4.10;2.57;;;23.60;54.30;;;;;;5053592;28;20447;-89
2023/05/30 11:12:45;;;;;;;2.70;2.50;;;23.40;55.50;;;;;;5048021;28;20518;-86
2023/05/30 11:15:29;;;;;;;7.33;4.90;;;23.20;53.60;;;;;;5052891;28;20446;-86
2023/05/30 11:17:55;;;;;;;7.63;2.93;;;23.30;56.00;;;;;;5052417;28;20557;-87
2023/05/30 11:20:22;;;;;;;12.73;3.40;;;23.60;55.70;;;;;;5035500;28;20527;-87
2023/05/30 11:23:02;;;;;;;4.83;2.47;;;23.40;55.70;;;;;;5053732;28;20534;-86
2023/05/30 11:25:30;;;;;;;7.13;3.10;;;23.50;55.00;;;;;;5035292;28;20493;-88
2023/05/30 11:28:04;;;;;;;7.77;2.73;;;23.50;55.50;;;;;;5054191;28;20447;-87
2023/05/30 11:30:37;;;;;;;3.67;2.40;;;23.60;54.80;;;;;;5053547;28;20477;-87
2023/05/30 11:33:04;;;;;;;3.80;2.70;;;23.50;54.30;;;;;;5054896;28;21076;-86
2023/05/30 11:35:31;;;;;;;5.50;3.03;;;23.20;54.30;;;;;;5054467;28;20424;-87
2023/05/30 11:37:57;;;;;;;8.00;2.63;;;;;;;;;;5053717;28;20485;-88
2023/05/30 11:40:24;;;;;;;8.90;3.70;;;;;;;;;;5040944;28;20447;-88
2023/05/30 11:42:51;;;;;;;4.83;2.77;;;23.20;56.90;;;;;;5051541;28;20426;-87
2023/05/30 11:45:17;;;;;;;3.47;2.93;;;;;;;;;;5051135;28;20434;-86
2023/05/30 11:47:46;;;;;;;6.87;3.00;;;23.00;57.10;;;;;;5053740;28;20439;-88
2023/05/30 11:50:12;;;;;;;4.10;3.07;;;;;;;;;;5052895;28;20464;-88
2023/05/30 11:52:39;;;;;;;3.13;2.43;;;23.50;56.00;;;;;;5054519;28;20452;-88
2023/05/30 11:55:05;;;;;;;3.20;2.23;;;;;;;;;;5034747;28;20906;-87
2023/05/30 11:57:31;;;;;;;5.30;2.70;;;;;;;;;;5051569;28;20423;-87
2023/05/30 11:59:58;;;;;;;4.23;2.80;;;;;;;;;;5031324;28;20454;-86
2023/05/30 12:02:27;;;;;;;2.93;2.57;;;23.40;54.70;;;;;;5049841;28;20469;-87
2023/05/30 12:05:03;;;;;;;5.30;2.90;;;23.40;55.60;;;;;;5051837;28;20510;-86
2023/05/30 12:07:30;;;;;;;6.30;4.57;;;20.50;54.40;;;;;;5051476;28;20426;-87
2023/05/30 12:09:56;;;;;;;5.30;2.50;;;23.10;56.40;;;;;;5057522;28;20531;-88
2023/05/30 12:12:25;;;;;;;3.50;2.57;;;;;;;;;;5050973;28;20455;-88
2023/05/30 12:14:52;;;;;;;2.67;2.40;;;;;;;;;;5055267;28;20242;-88
2023/05/30 12:17:20;;;;;;;6.03;2.97;;;23.50;55.90;;;;;;5040553;28;20416;-88
2023/05/30 12:19:46;;;;;;;4.27;2.57;;;;;;;;;;5054206;28;20457;-87
2023/05/30 12:22:15;;;;;;;8.40;2.80;;;23.90;55.60;;;;;;5045329;28;20423;-88
2023/05/30 12:24:41;;;;;;;5.03;2.83;;;;;;;;;;5051172;28;20416;-88
2023/05/30 12:27:21;;;;;;;4.43;3.00;;;23.90;54.60;;;;;;5051112;28;20510;-87
2023/05/30 12:29:48;;;;;;;6.73;3.23;;;23.80;55.10;;;;;;5039194;28;20560;-87
2023/05/30 12:32:13;;;;;;;6.20;2.77;;;23.80;55.40;;;;;;5051385;28;20430;-88
2023/05/30 12:34:42;;;;;;;4.20;2.70;;;23.90;54.60;;;;;;5026911;28;20424;-87
2023/05/30 12:37:11;;;;;;;8.93;3.43;;;23.90;55.80;;;;;;5049808;28;20264;-86
2023/05/30 12:39:51;;;;;;;3.43;2.67;;;24.10;54.10;;;;;;5028636;28;20550;-86
2023/05/30 12:42:25;;;;;;;6.27;3.17;;;23.60;54.80;;;;;;5030023;28;20439;-87
2023/05/30 12:44:55;;;;;;;5.37;2.40;;;23.70;56.80;;;;;;5029861;28;20522;-86
2023/05/30 12:47:22;;;;;;;3.90;3.40;;;23.40;55.00;;;;;;5048918;28;20420;-88
2023/05/30 12:49:48;;;;;;;4.73;3.23;;;23.30;56.70;;;;;;5047550;28;20463;-86
2023/05/30 12:52:14;;;;;;;7.23;3.40;;;23.30;55.50;;;;;;5049982;28;20442;-86
2023/05/30 12:54:41;;;;;;;3.90;3.03;;;23.70;53.60;;;;;;5036229;28;20259;-88
2023/05/30 12:57:08;;;;;;;4.60;2.73;;;23.60;54.10;;;;;;5047967;28;20419;-88
2023/05/30 12:59:34;;;;;;;3.87;2.90;;;23.80;53.80;;;;;;5047999;28;20490;-87
2023/05/30 13:02:00;;;;;;;6.63;3.30;;;23.70;54.50;;;;;;5040592;28;20761;-86
2023/05/30 13:04:25;;;;;;;6.90;3.10;;;23.80;55.80;;;;;;5069532;28;20180;-86
2023/05/30 13:06:52;;;;;;;8.00;3.70;;;;;;;;;;5065874;28;20185;-87
2023/05/30 13:09:18;;;;;;;6.20;2.90;;;;;;;;;;5034540;28;20215;-87
2023/05/30 13:11:44;;;;;;;4.40;2.60;;;;;;;;;;5044566;28;20745;-88
2023/05/30 13:14:10;;;;;;;4.23;2.97;;;;;;;;;;5054225;28;20431;-88
2023/05/30 13:16:36;;;;;;;7.57;2.53;;;;;;;;;;5049194;28;20435;-88
2023/05/30 13:19:02;;;;;;;4.50;2.97;;;;;;;;;;5051015;28;20451;-87
2023/05/30 13:21:28;;;;;;;7.00;2.70;;;;;;;;;;5043787;28;20754;-87
2023/05/30 13:23:54;;;;;;;5.83;2.80;;;;;;;;;;5021186;28;20930;-86
2023/05/30 13:26:20;;;;;;;4.63;2.80;;;;;;;;;;5049154;28;21053;-87
2023/05/30 13:28:45;;;;;;;2.97;2.33;;;23.90;52.00;;;;;;5037656;28;20471;-87
2023/05/30 13:31:12;;;;;;;5.33;2.80;;;23.90;53.00;;;;;;5035091;28;20431;-88